sensor_id;sensor_type;location;lat;lon;timestamp;P1;durP1;ratioP1;P2;durP2;ratioP2
22935;SDS011;11633;42.716;23.312;2023-02-28T00:02:24;13.05;;;8.27;;
22935;SDS011;11633;42.716;23.312;2023-02-28T00:04:49;15.77;;;8.48;;
22935;SDS011;11633;42.716;23.312;2023-02-28T00:07:18;12.82;;;8.27;;
22935;SDS011;11633;42.716;23.312;2023-02-28T00:09:43;15.20;;;8.68;;
22935;SDS011;11633;42.716;23.312;2023-02-28T00:12:08;22.45;;;9.57;;
22935;SDS011;11633;42.716;23.312;2023-02-28T00:14:35;17.67;;;9.85;;
22935;SDS011;11633;42.716;23.312;2023-02-28T00:17:00;15.63;;;9.63;;
22935;SDS011;11633;42.716;23.312;2023-02-28T00:19:25;14.75;;;9.50;;
22935;SDS011;11633;42.716;23.312;2023-02-28T00:21:51;15.25;;;9.23;;
22935;SDS011;11633;42.716;23.312;2023-02-28T00:24:16;16.15;;;9.48;;
22935;SDS011;11633;42.716;23.312;2023-02-28T00:26:41;15.55;;;9.52;;
22935;SDS011;11633;42.716;23.312;2023-02-28T00:29:06;18.67;;;10.82;;
22935;SDS011;11633;42.716;23.312;2023-02-28T00:31:32;15.88;;;9.05;;
22935;SDS011;11633;42.716;23.312;2023-02-28T00:33:57;16.85;;;8.73;;
22935;SDS011;11633;42.716;23.312;2023-02-28T00:36:23;14.32;;;10.10;;
22935;SDS011;11633;42.716;23.312;2023-02-28T00:38:48;16.17;;;9.55;;
22935;SDS011;11633;42.716;23.312;2023-02-28T00:41:13;17.15;;;9.30;;
22935;SDS011;11633;42.716;23.312;2023-02-28T00:43:39;16.67;;;10.52;;
22935;SDS011;11633;42.716;23.312;2023-02-28T00:46:04;14.55;;;9.07;;
22935;SDS011;11633;42.716;23.312;2023-02-28T00:48:30;15.25;;;9.35;;
22935;SDS011;11633;42.716;23.312;2023-02-28T00:50:55;14.63;;;8.80;;
22935;SDS011;11633;42.716;23.312;2023-02-28T00:53:20;14.10;;;8.38;;
22935;SDS011;11633;42.716;23.312;2023-02-28T00:55:46;15.20;;;8.60;;
22935;SDS011;11633;42.716;23.312;2023-02-28T00:58:12;14.60;;;8.60;;
22935;SDS011;11633;42.716;23.312;2023-02-28T01:00:37;18.58;;;9.15;;
22935;SDS011;11633;42.716;23.312;2023-02-28T01:03:02;18.33;;;9.32;;
22935;SDS011;11633;42.716;23.312;2023-02-28T01:05:27;16.08;;;8.65;;
22935;SDS011;11633;42.716;23.312;2023-02-28T01:07:53;16.73;;;10.02;;
22935;SDS011;11633;42.716;23.312;2023-02-28T01:10:18;14.85;;;9.15;;
22935;SDS011;11633;42.716;23.312;2023-02-28T01:12:43;15.80;;;9.50;;
22935;SDS011;11633;42.716;23.312;2023-02-28T01:15:10;19.08;;;9.73;;
22935;SDS011;11633;42.716;23.312;2023-02-28T01:17:35;17.23;;;9.75;;
22935;SDS011;11633;42.716;23.312;2023-02-28T01:20:01;15.27;;;9.73;;
22935;SDS011;11633;42.716;23.312;2023-02-28T01:22:26;16.67;;;9.93;;
22935;SDS011;11633;42.716;23.312;2023-02-28T01:24:51;19.13;;;10.30;;
22935;SDS011;11633;42.716;23.312;2023-02-28T01:27:16;24.88;;;11.13;;
22935;SDS011;11633;42.716;23.312;2023-02-28T01:29:41;23.67;;;9.75;;
22935;SDS011;11633;42.716;23.312;2023-02-28T01:32:07;20.98;;;9.10;;
22935;SDS011;11633;42.716;23.312;2023-02-28T01:34:32;18.15;;;9.65;;
22935;SDS011;11633;42.716;23.312;2023-02-28T01:36:57;21.38;;;10.73;;
22935;SDS011;11633;42.716;23.312;2023-02-28T01:39:23;22.25;;;10.40;;
22935;SDS011;11633;42.716;23.312;2023-02-28T01:41:49;18.30;;;9.98;;
22935;SDS011;11633;42.716;23.312;2023-02-28T01:46:58;18.75;;;9.30;;
22935;SDS011;11633;42.716;23.312;2023-02-28T01:49:23;18.48;;;9.95;;
22935;SDS011;11633;42.716;23.312;2023-02-28T01:51:49;16.80;;;9.70;;
22935;SDS011;11633;42.716;23.312;2023-02-28T01:54:24;19.10;;;9.25;;
22935;SDS011;11633;42.716;23.312;2023-02-28T01:59:23;15.20;;;8.63;;
22935;SDS011;11633;42.716;23.312;2023-02-28T02:01:49;19.90;;;9.00;;
22935;SDS011;11633;42.716;23.312;2023-02-28T02:04:15;17.95;;;9.10;;
22935;SDS011;11633;42.716;23.312;2023-02-28T02:06:42;17.63;;;7.93;;
22935;SDS011;11633;42.716;23.312;2023-02-28T02:09:08;18.08;;;9.07;;
22935;SDS011;11633;42.716;23.312;2023-02-28T02:11:33;16.70;;;8.95;;
22935;SDS011;11633;42.716;23.312;2023-02-28T02:18:53;16.38;;;9.50;;
22935;SDS011;11633;42.716;23.312;2023-02-28T02:36:40;22.08;;;11.32;;
22935;SDS011;11633;42.716;23.312;2023-02-28T02:41:45;20.27;;;11.05;;
22935;SDS011;11633;42.716;23.312;2023-02-28T02:44:18;22.13;;;11.48;;
22935;SDS011;11633;42.716;23.312;2023-02-28T02:46:47;21.40;;;11.23;;
22935;SDS011;11633;42.716;23.312;2023-02-28T02:49:14;20.65;;;10.23;;
22935;SDS011;11633;42.716;23.312;2023-02-28T02:51:40;25.88;;;10.90;;
22935;SDS011;11633;42.716;23.312;2023-02-28T02:56:31;18.88;;;10.18;;
22935;SDS011;11633;42.716;23.312;2023-02-28T02:58:59;21.02;;;10.75;;
22935;SDS011;11633;42.716;23.312;2023-02-28T03:01:25;19.00;;;10.70;;
22935;SDS011;11633;42.716;23.312;2023-02-28T03:03:58;17.42;;;10.38;;
22935;SDS011;11633;42.716;23.312;2023-02-28T03:06:25;21.65;;;11.30;;
22935;SDS011;11633;42.716;23.312;2023-02-28T03:08:50;17.85;;;9.52;;
22935;SDS011;11633;42.716;23.312;2023-02-28T03:11:15;22.55;;;11.98;;
22935;SDS011;11633;42.716;23.312;2023-02-28T03:13:51;35.28;;;17.48;;
22935;SDS011;11633;42.716;23.312;2023-02-28T03:18:58;21.40;;;12.50;;
22935;SDS011;11633;42.716;23.312;2023-02-28T03:26:29;17.48;;;10.63;;
22935;SDS011;11633;42.716;23.312;2023-02-28T03:31:29;19.05;;;9.90;;
22935;SDS011;11633;42.716;23.312;2023-02-28T03:34:08;21.88;;;13.00;;
22935;SDS011;11633;42.716;23.312;2023-02-28T03:36:42;16.73;;;9.35;;
22935;SDS011;11633;42.716;23.312;2023-02-28T03:39:13;16.27;;;8.45;;
22935;SDS011;11633;42.716;23.312;2023-02-28T03:41:42;18.27;;;10.18;;
22935;SDS011;11633;42.716;23.312;2023-02-28T03:44:15;18.50;;;9.48;;
22935;SDS011;11633;42.716;23.312;2023-02-28T03:46:42;15.52;;;9.73;;
22935;SDS011;11633;42.716;23.312;2023-02-28T03:49:20;15.02;;;9.48;;
22935;SDS011;11633;42.716;23.312;2023-02-28T03:51:47;12.93;;;7.80;;
22935;SDS011;11633;42.716;23.312;2023-02-28T03:54:15;14.65;;;8.48;;
22935;SDS011;11633;42.716;23.312;2023-02-28T03:56:43;16.83;;;8.55;;
22935;SDS011;11633;42.716;23.312;2023-02-28T03:59:17;14.27;;;8.82;;
22935;SDS011;11633;42.716;23.312;2023-02-28T04:01:44;17.38;;;9.07;;
22935;SDS011;11633;42.716;23.312;2023-02-28T04:04:10;18.55;;;9.00;;
22935;SDS011;11633;42.716;23.312;2023-02-28T04:06:35;26.77;;;15.07;;
22935;SDS011;11633;42.716;23.312;2023-02-28T04:09:01;17.23;;;9.77;;
22935;SDS011;11633;42.716;23.312;2023-02-28T04:11:36;15.98;;;9.13;;
22935;SDS011;11633;42.716;23.312;2023-02-28T04:14:03;20.38;;;11.52;;
22935;SDS011;11633;42.716;23.312;2023-02-28T04:16:28;15.43;;;8.93;;
22935;SDS011;11633;42.716;23.312;2023-02-28T04:18:54;17.52;;;9.73;;
22935;SDS011;11633;42.716;23.312;2023-02-28T04:21:32;19.13;;;11.20;;
22935;SDS011;11633;42.716;23.312;2023-02-28T04:23:58;18.80;;;9.95;;
22935;SDS011;11633;42.716;23.312;2023-02-28T04:26:27;23.70;;;11.73;;
22935;SDS011;11633;42.716;23.312;2023-02-28T04:28:53;20.40;;;12.73;;
22935;SDS011;11633;42.716;23.312;2023-02-28T04:31:18;20.73;;;10.75;;
22935;SDS011;11633;42.716;23.312;2023-02-28T04:33:43;19.27;;;9.48;;
22935;SDS011;11633;42.716;23.312;2023-02-28T04:36:08;17.58;;;9.48;;
22935;SDS011;11633;42.716;23.312;2023-02-28T04:38:34;21.25;;;9.35;;
22935;SDS011;11633;42.716;23.312;2023-02-28T04:41:00;18.80;;;8.82;;
22935;SDS011;11633;42.716;23.312;2023-02-28T04:43:26;18.67;;;9.25;;
22935;SDS011;11633;42.716;23.312;2023-02-28T04:45:51;19.33;;;10.23;;
22935;SDS011;11633;42.716;23.312;2023-02-28T04:48:16;17.42;;;9.68;;
22935;SDS011;11633;42.716;23.312;2023-02-28T04:50:42;14.88;;;8.63;;
22935;SDS011;11633;42.716;23.312;2023-02-28T04:53:07;17.23;;;9.25;;
22935;SDS011;11633;42.716;23.312;2023-02-28T04:55:33;21.80;;;10.80;;
22935;SDS011;11633;42.716;23.312;2023-02-28T04:57:58;33.25;;;16.20;;
22935;SDS011;11633;42.716;23.312;2023-02-28T05:00:23;29.92;;;15.35;;
22935;SDS011;11633;42.716;23.312;2023-02-28T05:02:48;31.67;;;16.45;;
22935;SDS011;11633;42.716;23.312;2023-02-28T05:05:14;31.48;;;14.90;;
22935;SDS011;11633;42.716;23.312;2023-02-28T05:07:43;41.95;;;18.77;;
22935;SDS011;11633;42.716;23.312;2023-02-28T05:10:08;45.42;;;19.70;;
22935;SDS011;11633;42.716;23.312;2023-02-28T05:12:34;31.10;;;16.52;;
22935;SDS011;11633;42.716;23.312;2023-02-28T05:14:59;41.05;;;20.80;;
22935;SDS011;11633;42.716;23.312;2023-02-28T05:17:26;61.03;;;28.27;;
22935;SDS011;11633;42.716;23.312;2023-02-28T05:19:51;43.50;;;21.38;;
22935;SDS011;11633;42.716;23.312;2023-02-28T05:22:16;38.05;;;20.50;;
22935;SDS011;11633;42.716;23.312;2023-02-28T05:24:42;44.72;;;23.27;;
22935;SDS011;11633;42.716;23.312;2023-02-28T05:27:07;42.13;;;17.40;;
22935;SDS011;11633;42.716;23.312;2023-02-28T05:29:32;42.33;;;21.60;;
22935;SDS011;11633;42.716;23.312;2023-02-28T05:31:59;51.25;;;24.05;;
22935;SDS011;11633;42.716;23.312;2023-02-28T05:34:24;59.45;;;29.75;;
22935;SDS011;11633;42.716;23.312;2023-02-28T05:36:49;55.65;;;28.17;;
22935;SDS011;11633;42.716;23.312;2023-02-28T05:39:14;71.53;;;36.33;;
22935;SDS011;11633;42.716;23.312;2023-02-28T05:41:40;62.15;;;30.83;;
22935;SDS011;11633;42.716;23.312;2023-02-28T05:44:06;59.05;;;28.50;;
22935;SDS011;11633;42.716;23.312;2023-02-28T05:46:31;70.05;;;32.47;;
22935;SDS011;11633;42.716;23.312;2023-02-28T05:48:56;52.28;;;24.08;;
22935;SDS011;11633;42.716;23.312;2023-02-28T05:51:24;51.05;;;24.33;;
22935;SDS011;11633;42.716;23.312;2023-02-28T05:53:50;44.38;;;20.67;;
22935;SDS011;11633;42.716;23.312;2023-02-28T05:56:15;48.90;;;23.08;;
22935;SDS011;11633;42.716;23.312;2023-02-28T05:58:40;47.85;;;21.30;;
22935;SDS011;11633;42.716;23.312;2023-02-28T06:03:49;38.95;;;18.55;;
22935;SDS011;11633;42.716;23.312;2023-02-28T06:06:14;37.35;;;16.33;;
22935;SDS011;11633;42.716;23.312;2023-02-28T06:08:39;30.70;;;16.38;;
22935;SDS011;11633;42.716;23.312;2023-02-28T06:11:04;38.67;;;17.10;;
22935;SDS011;11633;42.716;23.312;2023-02-28T06:13:30;44.60;;;18.95;;
22935;SDS011;11633;42.716;23.312;2023-02-28T06:15:55;37.50;;;16.75;;
22935;SDS011;11633;42.716;23.312;2023-02-28T06:18:21;41.10;;;20.05;;
22935;SDS011;11633;42.716;23.312;2023-02-28T06:20:52;32.08;;;16.98;;
22935;SDS011;11633;42.716;23.312;2023-02-28T06:23:19;53.90;;;25.15;;
22935;SDS011;11633;42.716;23.312;2023-02-28T06:25:45;51.75;;;26.00;;
22935;SDS011;11633;42.716;23.312;2023-02-28T06:28:10;63.75;;;28.35;;
22935;SDS011;11633;42.716;23.312;2023-02-28T06:30:36;60.67;;;26.33;;
22935;SDS011;11633;42.716;23.312;2023-02-28T06:33:02;49.55;;;23.75;;
22935;SDS011;11633;42.716;23.312;2023-02-28T06:35:27;50.10;;;21.65;;
22935;SDS011;11633;42.716;23.312;2023-02-28T06:37:52;47.47;;;20.35;;
22935;SDS011;11633;42.716;23.312;2023-02-28T06:40:17;43.63;;;19.45;;
22935;SDS011;11633;42.716;23.312;2023-02-28T06:42:43;42.10;;;20.27;;
22935;SDS011;11633;42.716;23.312;2023-02-28T06:45:08;36.30;;;18.88;;
22935;SDS011;11633;42.716;23.312;2023-02-28T06:47:34;38.15;;;18.30;;
22935;SDS011;11633;42.716;23.312;2023-02-28T06:50:00;44.15;;;18.42;;
22935;SDS011;11633;42.716;23.312;2023-02-28T06:52:26;39.03;;;17.00;;
22935;SDS011;11633;42.716;23.312;2023-02-28T06:54:51;41.63;;;17.67;;
22935;SDS011;11633;42.716;23.312;2023-02-28T06:57:25;33.17;;;17.55;;
22935;SDS011;11633;42.716;23.312;2023-02-28T06:59:50;38.10;;;19.38;;
22935;SDS011;11633;42.716;23.312;2023-02-28T07:02:15;34.78;;;17.17;;
22935;SDS011;11633;42.716;23.312;2023-02-28T07:04:40;33.70;;;16.45;;
22935;SDS011;11633;42.716;23.312;2023-02-28T07:07:09;38.28;;;17.80;;
22935;SDS011;11633;42.716;23.312;2023-02-28T07:09:34;40.08;;;18.67;;
22935;SDS011;11633;42.716;23.312;2023-02-28T07:12:01;33.47;;;16.70;;
22935;SDS011;11633;42.716;23.312;2023-02-28T07:14:26;35.15;;;18.38;;
22935;SDS011;11633;42.716;23.312;2023-02-28T07:16:51;35.70;;;16.88;;
22935;SDS011;11633;42.716;23.312;2023-02-28T07:19:16;33.35;;;17.73;;
22935;SDS011;11633;42.716;23.312;2023-02-28T07:21:42;27.38;;;16.65;;
22935;SDS011;11633;42.716;23.312;2023-02-28T07:24:07;27.10;;;15.95;;
22935;SDS011;11633;42.716;23.312;2023-02-28T07:26:33;32.65;;;17.48;;
22935;SDS011;11633;42.716;23.312;2023-02-28T07:28:59;35.90;;;17.23;;
22935;SDS011;11633;42.716;23.312;2023-02-28T07:31:24;32.97;;;16.52;;
22935;SDS011;11633;42.716;23.312;2023-02-28T07:33:49;34.40;;;17.17;;
22935;SDS011;11633;42.716;23.312;2023-02-28T07:36:15;34.10;;;18.33;;
22935;SDS011;11633;42.716;23.312;2023-02-28T07:38:42;34.97;;;19.05;;
22935;SDS011;11633;42.716;23.312;2023-02-28T07:41:08;37.85;;;19.17;;
22935;SDS011;11633;42.716;23.312;2023-02-28T07:43:34;34.33;;;18.58;;
22935;SDS011;11633;42.716;23.312;2023-02-28T07:46:04;35.72;;;17.92;;
22935;SDS011;11633;42.716;23.312;2023-02-28T07:48:30;32.60;;;17.05;;
22935;SDS011;11633;42.716;23.312;2023-02-28T07:50:55;38.90;;;16.90;;
22935;SDS011;11633;42.716;23.312;2023-02-28T07:53:21;37.65;;;18.05;;
22935;SDS011;11633;42.716;23.312;2023-02-28T07:55:47;32.55;;;18.00;;
22935;SDS011;11633;42.716;23.312;2023-02-28T07:58:12;39.25;;;18.67;;
22935;SDS011;11633;42.716;23.312;2023-02-28T08:00:37;35.92;;;18.70;;
22935;SDS011;11633;42.716;23.312;2023-02-28T08:03:19;34.83;;;18.10;;
22935;SDS011;11633;42.716;23.312;2023-02-28T08:05:44;34.40;;;17.23;;
22935;SDS011;11633;42.716;23.312;2023-02-28T08:08:10;27.77;;;16.20;;
22935;SDS011;11633;42.716;23.312;2023-02-28T08:10:35;25.83;;;15.02;;
22935;SDS011;11633;42.716;23.312;2023-02-28T08:13:00;33.15;;;17.50;;
22935;SDS011;11633;42.716;23.312;2023-02-28T08:15:25;27.60;;;16.02;;
22935;SDS011;11633;42.716;23.312;2023-02-28T08:17:51;28.27;;;16.17;;
22935;SDS011;11633;42.716;23.312;2023-02-28T08:20:16;27.58;;;15.35;;
22935;SDS011;11633;42.716;23.312;2023-02-28T08:22:41;24.77;;;14.85;;
22935;SDS011;11633;42.716;23.312;2023-02-28T08:25:07;24.38;;;14.30;;
22935;SDS011;11633;42.716;23.312;2023-02-28T08:27:32;24.05;;;14.15;;
22935;SDS011;11633;42.716;23.312;2023-02-28T08:29:58;20.73;;;13.68;;
22935;SDS011;11633;42.716;23.312;2023-02-28T08:32:23;22.27;;;14.02;;
22935;SDS011;11633;42.716;23.312;2023-02-28T08:34:48;24.95;;;14.93;;
22935;SDS011;11633;42.716;23.312;2023-02-28T08:37:14;23.92;;;14.40;;
22935;SDS011;11633;42.716;23.312;2023-02-28T08:39:39;26.58;;;15.77;;
22935;SDS011;11633;42.716;23.312;2023-02-28T08:42:04;31.00;;;16.77;;
22935;SDS011;11633;42.716;23.312;2023-02-28T08:44:32;28.90;;;17.58;;
22935;SDS011;11633;42.716;23.312;2023-02-28T08:46:58;37.88;;;18.42;;
22935;SDS011;11633;42.716;23.312;2023-02-28T08:49:23;34.40;;;19.42;;
22935;SDS011;11633;42.716;23.312;2023-02-28T08:51:48;34.58;;;19.45;;
22935;SDS011;11633;42.716;23.312;2023-02-28T08:54:13;36.78;;;20.17;;
22935;SDS011;11633;42.716;23.312;2023-02-28T08:56:41;30.70;;;18.35;;
22935;SDS011;11633;42.716;23.312;2023-02-28T08:59:06;38.42;;;19.95;;
22935;SDS011;11633;42.716;23.312;2023-02-28T09:01:31;33.90;;;18.55;;
22935;SDS011;11633;42.716;23.312;2023-02-28T09:03:57;37.55;;;19.15;;
22935;SDS011;11633;42.716;23.312;2023-02-28T09:06:24;29.08;;;17.80;;
22935;SDS011;11633;42.716;23.312;2023-02-28T09:08:49;33.40;;;18.02;;
22935;SDS011;11633;42.716;23.312;2023-02-28T09:11:15;31.60;;;19.13;;
22935;SDS011;11633;42.716;23.312;2023-02-28T09:13:41;34.78;;;19.70;;
22935;SDS011;11633;42.716;23.312;2023-02-28T09:16:07;28.42;;;17.30;;
22935;SDS011;11633;42.716;23.312;2023-02-28T09:18:35;29.35;;;18.25;;
22935;SDS011;11633;42.716;23.312;2023-02-28T09:21:05;35.72;;;18.73;;
22935;SDS011;11633;42.716;23.312;2023-02-28T09:23:31;31.27;;;17.77;;
22935;SDS011;11633;42.716;23.312;2023-02-28T09:25:56;35.88;;;18.05;;
22935;SDS011;11633;42.716;23.312;2023-02-28T09:28:22;42.42;;;22.70;;
22935;SDS011;11633;42.716;23.312;2023-02-28T09:30:49;36.75;;;23.02;;
22935;SDS011;11633;42.716;23.312;2023-02-28T09:33:14;34.35;;;18.88;;
22935;SDS011;11633;42.716;23.312;2023-02-28T09:35:40;33.05;;;18.48;;
22935;SDS011;11633;42.716;23.312;2023-02-28T09:38:05;33.47;;;19.13;;
22935;SDS011;11633;42.716;23.312;2023-02-28T09:40:34;33.20;;;18.88;;
22935;SDS011;11633;42.716;23.312;2023-02-28T09:43:00;30.92;;;18.90;;
22935;SDS011;11633;42.716;23.312;2023-02-28T09:45:30;36.78;;;20.80;;
22935;SDS011;11633;42.716;23.312;2023-02-28T09:48:01;33.28;;;18.10;;
22935;SDS011;11633;42.716;23.312;2023-02-28T09:50:36;27.02;;;17.63;;
22935;SDS011;11633;42.716;23.312;2023-02-28T09:53:05;31.75;;;18.33;;
22935;SDS011;11633;42.716;23.312;2023-02-28T09:55:37;29.75;;;18.08;;
22935;SDS011;11633;42.716;23.312;2023-02-28T09:58:04;32.88;;;17.35;;
22935;SDS011;11633;42.716;23.312;2023-02-28T10:00:31;26.85;;;16.42;;
22935;SDS011;11633;42.716;23.312;2023-02-28T10:05:33;15.93;;;8.25;;
22935;SDS011;11633;42.716;23.312;2023-02-28T10:12:55;15.13;;;8.32;;
22935;SDS011;11633;42.716;23.312;2023-02-28T10:15:23;17.60;;;8.18;;
22935;SDS011;11633;42.716;23.312;2023-02-28T10:17:49;18.50;;;8.68;;
22935;SDS011;11633;42.716;23.312;2023-02-28T10:20:19;16.80;;;8.13;;
22935;SDS011;11633;42.716;23.312;2023-02-28T10:25:27;13.07;;;7.90;;
22935;SDS011;11633;42.716;23.312;2023-02-28T10:27:53;14.32;;;6.75;;
22935;SDS011;11633;42.716;23.312;2023-02-28T10:30:18;17.98;;;7.47;;
22935;SDS011;11633;42.716;23.312;2023-02-28T10:32:47;13.25;;;6.55;;
22935;SDS011;11633;42.716;23.312;2023-02-28T10:35:15;14.68;;;7.80;;
22935;SDS011;11633;42.716;23.312;2023-02-28T10:37:41;10.45;;;7.00;;
22935;SDS011;11633;42.716;23.312;2023-02-28T10:43:00;13.40;;;6.55;;
22935;SDS011;11633;42.716;23.312;2023-02-28T10:45:26;15.48;;;7.50;;
22935;SDS011;11633;42.716;23.312;2023-02-28T10:47:57;14.45;;;7.22;;
22935;SDS011;11633;42.716;23.312;2023-02-28T10:55:55;12.90;;;6.60;;
22935;SDS011;11633;42.716;23.312;2023-02-28T10:58:22;11.68;;;6.28;;
22935;SDS011;11633;42.716;23.312;2023-02-28T11:00:48;13.10;;;8.07;;
22935;SDS011;11633;42.716;23.312;2023-02-28T11:03:46;16.75;;;7.13;;
22935;SDS011;11633;42.716;23.312;2023-02-28T11:06:06;13.23;;;7.15;;
22935;SDS011;11633;42.716;23.312;2023-02-28T11:08:33;12.07;;;6.90;;
22935;SDS011;11633;42.716;23.312;2023-02-28T11:10:58;13.18;;;7.30;;
22935;SDS011;11633;42.716;23.312;2023-02-28T11:13:30;16.63;;;8.55;;
22935;SDS011;11633;42.716;23.312;2023-02-28T11:15:57;15.00;;;7.13;;
22935;SDS011;11633;42.716;23.312;2023-02-28T11:18:43;18.73;;;7.97;;
22935;SDS011;11633;42.716;23.312;2023-02-28T11:21:09;19.48;;;8.25;;
22935;SDS011;11633;42.716;23.312;2023-02-28T11:23:37;18.17;;;7.57;;
22935;SDS011;11633;42.716;23.312;2023-02-28T11:26:05;18.77;;;7.88;;
22935;SDS011;11633;42.716;23.312;2023-02-28T11:28:36;12.63;;;7.55;;
22935;SDS011;11633;42.716;23.312;2023-02-28T11:36:09;14.75;;;7.65;;
22935;SDS011;11633;42.716;23.312;2023-02-28T11:38:35;15.15;;;8.75;;
22935;SDS011;11633;42.716;23.312;2023-02-28T11:46:05;15.15;;;8.20;;
22935;SDS011;11633;42.716;23.312;2023-02-28T11:48:33;19.10;;;9.20;;
22935;SDS011;11633;42.716;23.312;2023-02-28T12:01:32;11.45;;;6.93;;
22935;SDS011;11633;42.716;23.312;2023-02-28T12:04:36;12.73;;;6.60;;
22935;SDS011;11633;42.716;23.312;2023-02-28T12:06:57;16.95;;;7.60;;
22935;SDS011;11633;42.716;23.312;2023-02-28T12:11:56;15.85;;;8.77;;
22935;SDS011;11633;42.716;23.312;2023-02-28T12:19:48;12.55;;;5.95;;
22935;SDS011;11633;42.716;23.312;2023-02-28T12:22:25;14.82;;;6.75;;
22935;SDS011;11633;42.716;23.312;2023-02-28T12:27:25;13.07;;;6.55;;
22935;SDS011;11633;42.716;23.312;2023-02-28T12:29:54;11.80;;;6.28;;
22935;SDS011;11633;42.716;23.312;2023-02-28T12:32:23;9.85;;;5.82;;
22935;SDS011;11633;42.716;23.312;2023-02-28T12:34:57;16.60;;;6.30;;
22935;SDS011;11633;42.716;23.312;2023-02-28T12:40:21;12.95;;;6.50;;
22935;SDS011;11633;42.716;23.312;2023-02-28T12:42:50;13.70;;;7.22;;
22935;SDS011;11633;42.716;23.312;2023-02-28T12:45:23;13.40;;;5.72;;
22935;SDS011;11633;42.716;23.312;2023-02-28T12:47:59;16.73;;;6.93;;
22935;SDS011;11633;42.716;23.312;2023-02-28T12:50:26;14.90;;;6.60;;
22935;SDS011;11633;42.716;23.312;2023-02-28T12:52:58;14.65;;;6.75;;
22935;SDS011;11633;42.716;23.312;2023-02-28T13:00:59;11.70;;;6.40;;
22935;SDS011;11633;42.716;23.312;2023-02-28T13:06:16;11.13;;;5.72;;
22935;SDS011;11633;42.716;23.312;2023-02-28T13:11:25;10.00;;;6.50;;
22935;SDS011;11633;42.716;23.312;2023-02-28T13:13:57;15.13;;;7.10;;
22935;SDS011;11633;42.716;23.312;2023-02-28T13:16:22;15.23;;;7.43;;
22935;SDS011;11633;42.716;23.312;2023-02-28T13:18:47;18.00;;;6.68;;
22935;SDS011;11633;42.716;23.312;2023-02-28T13:21:24;12.25;;;6.78;;
22935;SDS011;11633;42.716;23.312;2023-02-28T13:26:23;14.55;;;6.45;;
22935;SDS011;11633;42.716;23.312;2023-02-28T13:34:20;14.13;;;5.88;;
22935;SDS011;11633;42.716;23.312;2023-02-28T13:36:46;14.68;;;7.80;;
22935;SDS011;11633;42.716;23.312;2023-02-28T13:41:55;11.18;;;6.35;;
22935;SDS011;11633;42.716;23.312;2023-02-28T13:44:24;11.27;;;6.95;;
22935;SDS011;11633;42.716;23.312;2023-02-28T13:59:25;11.90;;;6.15;;
22935;SDS011;11633;42.716;23.312;2023-02-28T14:07:03;11.70;;;5.80;;
22935;SDS011;11633;42.716;23.312;2023-02-28T14:09:29;11.32;;;6.55;;
22935;SDS011;11633;42.716;23.312;2023-02-28T14:11:55;10.77;;;6.28;;
22935;SDS011;11633;42.716;23.312;2023-02-28T14:17:05;15.13;;;6.53;;
22935;SDS011;11633;42.716;23.312;2023-02-28T14:19:31;10.05;;;5.50;;
22935;SDS011;11633;42.716;23.312;2023-02-28T14:22:01;9.40;;;5.47;;
22935;SDS011;11633;42.716;23.312;2023-02-28T14:32:03;13.32;;;6.20;;
22935;SDS011;11633;42.716;23.312;2023-02-28T14:37:15;15.00;;;6.95;;
22935;SDS011;11633;42.716;23.312;2023-02-28T14:39:41;13.25;;;6.60;;
22935;SDS011;11633;42.716;23.312;2023-02-28T14:44:56;15.40;;;6.93;;
22935;SDS011;11633;42.716;23.312;2023-02-28T14:47:21;15.57;;;7.00;;
22935;SDS011;11633;42.716;23.312;2023-02-28T14:49:48;14.90;;;6.97;;
22935;SDS011;11633;42.716;23.312;2023-02-28T14:52:23;16.15;;;7.15;;
22935;SDS011;11633;42.716;23.312;2023-02-28T14:55:03;12.95;;;6.50;;
22935;SDS011;11633;42.716;23.312;2023-02-28T14:57:32;16.70;;;6.55;;
22935;SDS011;11633;42.716;23.312;2023-02-28T15:00:04;14.90;;;6.50;;
22935;SDS011;11633;42.716;23.312;2023-02-28T15:02:35;10.82;;;6.53;;
22935;SDS011;11633;42.716;23.312;2023-02-28T15:05:02;13.85;;;6.43;;
22935;SDS011;11633;42.716;23.312;2023-02-28T15:07:35;8.52;;;5.88;;
22935;SDS011;11633;42.716;23.312;2023-02-28T15:10:11;15.13;;;5.90;;
22935;SDS011;11633;42.716;23.312;2023-02-28T15:12:39;14.38;;;6.53;;
22935;SDS011;11633;42.716;23.312;2023-02-28T15:15:05;15.30;;;6.50;;
22935;SDS011;11633;42.716;23.312;2023-02-28T15:17:30;9.15;;;5.95;;
22935;SDS011;11633;42.716;23.312;2023-02-28T15:19:56;12.68;;;6.65;;
22935;SDS011;11633;42.716;23.312;2023-02-28T15:22:28;9.10;;;6.03;;
22935;SDS011;11633;42.716;23.312;2023-02-28T15:24:56;10.85;;;5.78;;
22935;SDS011;11633;42.716;23.312;2023-02-28T15:27:22;9.00;;;5.90;;
22935;SDS011;11633;42.716;23.312;2023-02-28T15:29:49;12.98;;;7.00;;
22935;SDS011;11633;42.716;23.312;2023-02-28T15:32:29;17.80;;;7.00;;
22935;SDS011;11633;42.716;23.312;2023-02-28T15:34:54;12.82;;;5.60;;
22935;SDS011;11633;42.716;23.312;2023-02-28T15:39:56;13.40;;;6.50;;
22935;SDS011;11633;42.716;23.312;2023-02-28T15:42:23;10.38;;;6.10;;
22935;SDS011;11633;42.716;23.312;2023-02-28T15:44:52;11.25;;;7.03;;
22935;SDS011;11633;42.716;23.312;2023-02-28T15:47:18;10.73;;;7.03;;
22935;SDS011;11633;42.716;23.312;2023-02-28T15:49:47;12.50;;;6.60;;
22935;SDS011;11633;42.716;23.312;2023-02-28T15:52:14;9.57;;;5.45;;
22935;SDS011;11633;42.716;23.312;2023-02-28T15:54:40;10.55;;;5.70;;
22935;SDS011;11633;42.716;23.312;2023-02-28T15:57:10;9.40;;;5.93;;
22935;SDS011;11633;42.716;23.312;2023-02-28T15:59:38;9.57;;;5.53;;
22935;SDS011;11633;42.716;23.312;2023-02-28T16:04:28;10.52;;;6.60;;
22935;SDS011;11633;42.716;23.312;2023-02-28T16:09:24;9.52;;;6.50;;
22935;SDS011;11633;42.716;23.312;2023-02-28T16:11:53;10.93;;;6.32;;
22935;SDS011;11633;42.716;23.312;2023-02-28T16:14:23;8.70;;;5.82;;
22935;SDS011;11633;42.716;23.312;2023-02-28T16:16:50;7.88;;;5.15;;
22935;SDS011;11633;42.716;23.312;2023-02-28T16:19:16;10.23;;;5.43;;
22935;SDS011;11633;42.716;23.312;2023-02-28T16:21:41;6.88;;;4.85;;
22935;SDS011;11633;42.716;23.312;2023-02-28T16:24:07;8.07;;;4.47;;
22935;SDS011;11633;42.716;23.312;2023-02-28T16:26:32;9.63;;;5.47;;
22935;SDS011;11633;42.716;23.312;2023-02-28T16:28:59;9.43;;;5.32;;
22935;SDS011;11633;42.716;23.312;2023-02-28T16:31:25;9.93;;;4.80;;
22935;SDS011;11633;42.716;23.312;2023-02-28T16:33:50;8.43;;;5.22;;
22935;SDS011;11633;42.716;23.312;2023-02-28T16:36:17;6.57;;;4.47;;
22935;SDS011;11633;42.716;23.312;2023-02-28T16:38:42;9.32;;;4.70;;
22935;SDS011;11633;42.716;23.312;2023-02-28T16:41:08;8.45;;;4.93;;
22935;SDS011;11633;42.716;23.312;2023-02-28T16:43:36;10.32;;;4.93;;
22935;SDS011;11633;42.716;23.312;2023-02-28T16:46:03;11.13;;;4.82;;
22935;SDS011;11633;42.716;23.312;2023-02-28T16:48:28;7.70;;;4.10;;
22935;SDS011;11633;42.716;23.312;2023-02-28T16:50:55;10.40;;;5.72;;
22935;SDS011;11633;42.716;23.312;2023-02-28T16:53:20;7.18;;;4.60;;
22935;SDS011;11633;42.716;23.312;2023-02-28T16:55:46;6.38;;;4.28;;